sensor_id;sensor_type;location;lat;lon;timestamp;P1;durP1;ratioP1;P2;durP2;ratioP2
66429;SDS011;53242;51.694;10.006;2022-07-24T00:01:51;2.97;;;1.70;;
66429;SDS011;53242;51.694;10.006;2022-07-24T00:04:13;6.22;;;1.80;;
66429;SDS011;53242;51.694;10.006;2022-07-24T00:06:36;4.70;;;1.50;;
66429;SDS011;53242;51.694;10.006;2022-07-24T00:08:59;8.15;;;1.55;;
66429;SDS011;53242;51.694;10.006;2022-07-24T00:11:21;2.60;;;1.60;;
66429;SDS011;53242;51.694;10.006;2022-07-24T00:13:44;3.00;;;1.73;;
66429;SDS011;53242;51.694;10.006;2022-07-24T00:16:06;3.80;;;1.52;;
66429;SDS011;53242;51.694;10.006;2022-07-24T00:18:29;4.95;;;1.73;;
66429;SDS011;53242;51.694;10.006;2022-07-24T00:20:51;4.97;;;1.80;;
66429;SDS011;53242;51.694;10.006;2022-07-24T00:23:14;4.60;;;1.73;;
66429;SDS011;53242;51.694;10.006;2022-07-24T00:25:36;3.38;;;1.80;;
66429;SDS011;53242;51.694;10.006;2022-07-24T00:27:59;5.95;;;2.28;;
66429;SDS011;53242;51.694;10.006;2022-07-24T00:30:21;3.28;;;1.67;;
66429;SDS011;53242;51.694;10.006;2022-07-24T00:32:44;2.92;;;1.75;;
66429;SDS011;53242;51.694;10.006;2022-07-24T00:35:06;3.10;;;1.60;;
66429;SDS011;53242;51.694;10.006;2022-07-24T00:37:29;4.65;;;1.80;;
66429;SDS011;53242;51.694;10.006;2022-07-24T00:39:51;3.35;;;1.73;;
66429;SDS011;53242;51.694;10.006;2022-07-24T00:42:14;3.50;;;1.50;;
66429;SDS011;53242;51.694;10.006;2022-07-24T00:44:37;2.97;;;1.80;;
66429;SDS011;53242;51.694;10.006;2022-07-24T00:46:59;3.15;;;1.70;;
66429;SDS011;53242;51.694;10.006;2022-07-24T00:49:22;3.20;;;1.70;;
66429;SDS011;53242;51.694;10.006;2022-07-24T00:51:45;2.83;;;1.60;;
66429;SDS011;53242;51.694;10.006;2022-07-24T00:54:10;4.38;;;1.80;;
66429;SDS011;53242;51.694;10.006;2022-07-24T00:56:34;3.78;;;1.80;;
66429;SDS011;53242;51.694;10.006;2022-07-24T00:58:57;2.70;;;1.63;;
66429;SDS011;53242;51.694;10.006;2022-07-24T01:01:21;2.83;;;1.67;;
66429;SDS011;53242;51.694;10.006;2022-07-24T01:03:44;2.85;;;1.88;;
66429;SDS011;53242;51.694;10.006;2022-07-24T01:06:06;3.50;;;1.77;;
66429;SDS011;53242;51.694;10.006;2022-07-24T01:08:29;2.58;;;1.58;;
66429;SDS011;53242;51.694;10.006;2022-07-24T01:10:51;3.55;;;1.80;;
66429;SDS011;53242;51.694;10.006;2022-07-24T01:13:14;4.55;;;2.10;;
66429;SDS011;53242;51.694;10.006;2022-07-24T01:15:36;4.82;;;1.50;;
66429;SDS011;53242;51.694;10.006;2022-07-24T01:17:59;3.63;;;1.70;;
66429;SDS011;53242;51.694;10.006;2022-07-24T01:20:21;3.25;;;1.75;;
66429;SDS011;53242;51.694;10.006;2022-07-24T01:22:44;2.53;;;1.60;;
66429;SDS011;53242;51.694;10.006;2022-07-24T01:25:06;3.47;;;1.80;;
66429;SDS011;53242;51.694;10.006;2022-07-24T01:27:29;2.85;;;1.75;;
66429;SDS011;53242;51.694;10.006;2022-07-24T01:29:52;5.18;;;2.05;;
66429;SDS011;53242;51.694;10.006;2022-07-24T01:32:15;3.30;;;1.70;;
66429;SDS011;53242;51.694;10.006;2022-07-24T01:34:37;2.85;;;1.70;;
66429;SDS011;53242;51.694;10.006;2022-07-24T01:37:00;5.05;;;1.70;;
66429;SDS011;53242;51.694;10.006;2022-07-24T01:39:22;3.75;;;2.30;;
66429;SDS011;53242;51.694;10.006;2022-07-24T01:41:44;3.03;;;1.83;;
66429;SDS011;53242;51.694;10.006;2022-07-24T01:44:07;3.63;;;1.85;;
66429;SDS011;53242;51.694;10.006;2022-07-24T01:46:30;3.55;;;1.85;;
66429;SDS011;53242;51.694;10.006;2022-07-24T01:48:52;4.03;;;1.52;;
66429;SDS011;53242;51.694;10.006;2022-07-24T01:51:15;3.67;;;2.15;;
66429;SDS011;53242;51.694;10.006;2022-07-24T01:53:37;4.82;;;1.90;;
66429;SDS011;53242;51.694;10.006;2022-07-24T01:56:00;4.00;;;1.95;;
66429;SDS011;53242;51.694;10.006;2022-07-24T01:58:22;6.25;;;2.20;;
66429;SDS011;53242;51.694;10.006;2022-07-24T02:00:45;4.35;;;2.10;;
66429;SDS011;53242;51.694;10.006;2022-07-24T02:03:08;3.90;;;2.08;;
66429;SDS011;53242;51.694;10.006;2022-07-24T02:05:30;3.92;;;2.15;;
66429;SDS011;53242;51.694;10.006;2022-07-24T02:07:57;5.50;;;2.10;;
66429;SDS011;53242;51.694;10.006;2022-07-24T02:10:20;4.78;;;2.05;;
66429;SDS011;53242;51.694;10.006;2022-07-24T02:12:43;3.22;;;2.03;;
66429;SDS011;53242;51.694;10.006;2022-07-24T02:15:05;3.65;;;2.00;;
66429;SDS011;53242;51.694;10.006;2022-07-24T02:17:28;5.40;;;2.13;;
66429;SDS011;53242;51.694;10.006;2022-07-24T02:19:51;7.60;;;2.17;;
66429;SDS011;53242;51.694;10.006;2022-07-24T02:22:13;7.05;;;2.30;;
66429;SDS011;53242;51.694;10.006;2022-07-24T02:24:35;7.45;;;2.63;;
66429;SDS011;53242;51.694;10.006;2022-07-24T02:26:58;4.82;;;2.10;;
66429;SDS011;53242;51.694;10.006;2022-07-24T02:29:20;4.57;;;2.05;;
66429;SDS011;53242;51.694;10.006;2022-07-24T02:31:43;5.32;;;2.45;;
66429;SDS011;53242;51.694;10.006;2022-07-24T02:34:05;4.10;;;1.98;;
66429;SDS011;53242;51.694;10.006;2022-07-24T02:36:28;5.57;;;2.25;;
66429;SDS011;53242;51.694;10.006;2022-07-24T02:38:50;3.47;;;1.95;;
66429;SDS011;53242;51.694;10.006;2022-07-24T02:41:13;3.85;;;2.03;;
66429;SDS011;53242;51.694;10.006;2022-07-24T02:43:35;3.97;;;2.05;;
66429;SDS011;53242;51.694;10.006;2022-07-24T02:45:58;3.70;;;1.80;;
66429;SDS011;53242;51.694;10.006;2022-07-24T02:48:20;3.65;;;1.92;;
66429;SDS011;53242;51.694;10.006;2022-07-24T02:50:43;3.58;;;2.00;;
66429;SDS011;53242;51.694;10.006;2022-07-24T02:53:06;4.78;;;2.03;;
66429;SDS011;53242;51.694;10.006;2022-07-24T02:55:28;4.72;;;1.77;;
66429;SDS011;53242;51.694;10.006;2022-07-24T02:57:51;3.30;;;1.80;;
66429;SDS011;53242;51.694;10.006;2022-07-24T03:00:15;3.33;;;1.83;;
66429;SDS011;53242;51.694;10.006;2022-07-24T03:02:38;5.05;;;2.03;;
66429;SDS011;53242;51.694;10.006;2022-07-24T03:05:01;4.38;;;1.80;;
66429;SDS011;53242;51.694;10.006;2022-07-24T03:07:24;4.45;;;2.20;;
66429;SDS011;53242;51.694;10.006;2022-07-24T03:09:47;4.88;;;2.30;;
66429;SDS011;53242;51.694;10.006;2022-07-24T03:12:09;4.05;;;1.92;;
66429;SDS011;53242;51.694;10.006;2022-07-24T03:14:32;6.45;;;2.13;;
66429;SDS011;53242;51.694;10.006;2022-07-24T03:16:54;5.95;;;2.50;;
66429;SDS011;53242;51.694;10.006;2022-07-24T03:19:17;7.90;;;2.25;;
66429;SDS011;53242;51.694;10.006;2022-07-24T03:21:39;4.70;;;1.80;;
66429;SDS011;53242;51.694;10.006;2022-07-24T03:24:02;5.43;;;2.10;;
66429;SDS011;53242;51.694;10.006;2022-07-24T03:26:24;4.80;;;2.13;;
66429;SDS011;53242;51.694;10.006;2022-07-24T03:28:46;6.10;;;1.85;;
66429;SDS011;53242;51.694;10.006;2022-07-24T03:31:09;3.90;;;1.77;;
66429;SDS011;53242;51.694;10.006;2022-07-24T03:33:31;5.43;;;2.00;;
66429;SDS011;53242;51.694;10.006;2022-07-24T03:35:54;4.95;;;2.03;;
66429;SDS011;53242;51.694;10.006;2022-07-24T03:38:17;6.30;;;2.10;;
66429;SDS011;53242;51.694;10.006;2022-07-24T03:40:39;4.38;;;2.08;;
66429;SDS011;53242;51.694;10.006;2022-07-24T03:43:02;5.30;;;2.00;;
66429;SDS011;53242;51.694;10.006;2022-07-24T03:45:24;5.53;;;2.60;;
66429;SDS011;53242;51.694;10.006;2022-07-24T03:47:46;4.82;;;2.45;;
66429;SDS011;53242;51.694;10.006;2022-07-24T03:50:09;5.10;;;2.35;;
66429;SDS011;53242;51.694;10.006;2022-07-24T03:52:31;4.72;;;2.28;;
66429;SDS011;53242;51.694;10.006;2022-07-24T03:54:54;6.00;;;2.30;;
66429;SDS011;53242;51.694;10.006;2022-07-24T03:57:17;6.68;;;2.00;;
66429;SDS011;53242;51.694;10.006;2022-07-24T03:59:39;3.97;;;2.28;;
66429;SDS011;53242;51.694;10.006;2022-07-24T04:02:02;6.53;;;2.30;;
66429;SDS011;53242;51.694;10.006;2022-07-24T04:04:25;5.40;;;2.70;;
66429;SDS011;53242;51.694;10.006;2022-07-24T04:06:47;5.53;;;2.22;;
66429;SDS011;53242;51.694;10.006;2022-07-24T04:09:10;4.82;;;2.65;;
66429;SDS011;53242;51.694;10.006;2022-07-24T04:11:32;4.82;;;2.40;;
66429;SDS011;53242;51.694;10.006;2022-07-24T04:13:55;4.82;;;2.40;;
66429;SDS011;53242;51.694;10.006;2022-07-24T04:16:17;5.75;;;2.60;;
66429;SDS011;53242;51.694;10.006;2022-07-24T04:18:40;4.25;;;2.10;;
66429;SDS011;53242;51.694;10.006;2022-07-24T04:21:02;3.65;;;2.13;;
66429;SDS011;53242;51.694;10.006;2022-07-24T04:23:25;4.30;;;2.20;;
66429;SDS011;53242;51.694;10.006;2022-07-24T04:25:47;6.70;;;2.47;;
66429;SDS011;53242;51.694;10.006;2022-07-24T04:28:09;5.65;;;2.15;;
66429;SDS011;53242;51.694;10.006;2022-07-24T04:30:32;5.78;;;2.47;;
66429;SDS011;53242;51.694;10.006;2022-07-24T04:32:55;5.35;;;2.50;;
66429;SDS011;53242;51.694;10.006;2022-07-24T04:35:17;4.45;;;2.42;;
66429;SDS011;53242;51.694;10.006;2022-07-24T04:37:39;4.90;;;2.60;;
66429;SDS011;53242;51.694;10.006;2022-07-24T04:40:02;4.00;;;2.03;;
66429;SDS011;53242;51.694;10.006;2022-07-24T04:42:25;4.47;;;2.47;;
66429;SDS011;53242;51.694;10.006;2022-07-24T04:44:48;4.28;;;2.40;;
66429;SDS011;53242;51.694;10.006;2022-07-24T04:47:10;3.67;;;2.03;;
66429;SDS011;53242;51.694;10.006;2022-07-24T04:49:33;4.45;;;2.25;;
66429;SDS011;53242;51.694;10.006;2022-07-24T04:51:55;5.47;;;2.40;;
66429;SDS011;53242;51.694;10.006;2022-07-24T04:54:18;5.47;;;2.20;;
66429;SDS011;53242;51.694;10.006;2022-07-24T04:56:40;6.43;;;2.40;;
66429;SDS011;53242;51.694;10.006;2022-07-24T04:59:03;5.32;;;2.28;;
66429;SDS011;53242;51.694;10.006;2022-07-24T05:01:25;5.35;;;2.58;;
66429;SDS011;53242;51.694;10.006;2022-07-24T05:03:48;5.60;;;2.67;;
66429;SDS011;53242;51.694;10.006;2022-07-24T05:06:10;6.07;;;2.85;;
66429;SDS011;53242;51.694;10.006;2022-07-24T05:08:32;6.95;;;3.05;;
66429;SDS011;53242;51.694;10.006;2022-07-24T05:10:55;5.10;;;2.70;;
66429;SDS011;53242;51.694;10.006;2022-07-24T05:13:17;6.05;;;3.13;;
66429;SDS011;53242;51.694;10.006;2022-07-24T05:15:40;5.72;;;3.03;;
66429;SDS011;53242;51.694;10.006;2022-07-24T05:18:02;4.65;;;2.70;;
66429;SDS011;53242;51.694;10.006;2022-07-24T05:20:25;4.47;;;2.53;;
66429;SDS011;53242;51.694;10.006;2022-07-24T05:22:48;5.47;;;2.50;;
66429;SDS011;53242;51.694;10.006;2022-07-24T05:25:10;5.25;;;2.28;;
66429;SDS011;53242;51.694;10.006;2022-07-24T05:27:33;4.60;;;2.03;;
66429;SDS011;53242;51.694;10.006;2022-07-24T05:29:56;5.63;;;2.83;;
66429;SDS011;53242;51.694;10.006;2022-07-24T05:32:18;6.63;;;3.17;;
66429;SDS011;53242;51.694;10.006;2022-07-24T05:34:41;4.70;;;2.70;;
66429;SDS011;53242;51.694;10.006;2022-07-24T05:37:03;4.13;;;2.70;;
66429;SDS011;53242;51.694;10.006;2022-07-24T05:39:25;5.95;;;2.97;;
66429;SDS011;53242;51.694;10.006;2022-07-24T05:41:48;5.43;;;2.35;;
66429;SDS011;53242;51.694;10.006;2022-07-24T05:44:10;4.43;;;2.60;;
66429;SDS011;53242;51.694;10.006;2022-07-24T05:46:33;5.57;;;2.50;;
66429;SDS011;53242;51.694;10.006;2022-07-24T05:48:55;5.50;;;2.42;;
66429;SDS011;53242;51.694;10.006;2022-07-24T05:51:18;4.05;;;2.25;;
66429;SDS011;53242;51.694;10.006;2022-07-24T05:53:40;5.22;;;3.10;;
66429;SDS011;53242;51.694;10.006;2022-07-24T05:56:03;6.78;;;3.22;;
66429;SDS011;53242;51.694;10.006;2022-07-24T05:58:25;5.22;;;2.80;;
66429;SDS011;53242;51.694;10.006;2022-07-24T06:00:48;5.68;;;2.90;;
66429;SDS011;53242;51.694;10.006;2022-07-24T06:03:10;6.45;;;2.42;;
66429;SDS011;53242;51.694;10.006;2022-07-24T06:05:33;4.15;;;2.45;;
66429;SDS011;53242;51.694;10.006;2022-07-24T06:07:55;5.28;;;2.78;;
66429;SDS011;53242;51.694;10.006;2022-07-24T06:10:18;4.90;;;2.80;;
66429;SDS011;53242;51.694;10.006;2022-07-24T06:12:41;5.47;;;2.63;;
66429;SDS011;53242;51.694;10.006;2022-07-24T06:15:03;5.55;;;2.47;;
66429;SDS011;53242;51.694;10.006;2022-07-24T06:17:26;5.68;;;2.60;;
66429;SDS011;53242;51.694;10.006;2022-07-24T06:19:49;4.65;;;2.50;;
66429;SDS011;53242;51.694;10.006;2022-07-24T06:22:12;5.53;;;2.22;;
66429;SDS011;53242;51.694;10.006;2022-07-24T06:24:34;4.63;;;2.35;;
66429;SDS011;53242;51.694;10.006;2022-07-24T06:26:57;5.50;;;2.30;;
66429;SDS011;53242;51.694;10.006;2022-07-24T06:29:19;5.72;;;2.65;;
66429;SDS011;53242;51.694;10.006;2022-07-24T06:31:42;4.22;;;2.40;;
66429;SDS011;53242;51.694;10.006;2022-07-24T06:34:04;5.07;;;2.60;;
66429;SDS011;53242;51.694;10.006;2022-07-24T06:36:26;5.85;;;2.50;;
66429;SDS011;53242;51.694;10.006;2022-07-24T06:38:49;4.53;;;2.60;;
66429;SDS011;53242;51.694;10.006;2022-07-24T06:41:11;5.68;;;2.30;;
66429;SDS011;53242;51.694;10.006;2022-07-24T06:43:34;5.18;;;2.35;;
66429;SDS011;53242;51.694;10.006;2022-07-24T06:45:56;3.95;;;2.30;;
66429;SDS011;53242;51.694;10.006;2022-07-24T06:48:19;4.47;;;2.50;;
66429;SDS011;53242;51.694;10.006;2022-07-24T06:50:41;6.72;;;2.70;;
66429;SDS011;53242;51.694;10.006;2022-07-24T06:53:04;5.32;;;2.50;;
66429;SDS011;53242;51.694;10.006;2022-07-24T06:55:26;5.10;;;2.08;;
66429;SDS011;53242;51.694;10.006;2022-07-24T06:57:49;3.55;;;2.40;;
66429;SDS011;53242;51.694;10.006;2022-07-24T07:00:11;4.25;;;2.20;;
66429;SDS011;53242;51.694;10.006;2022-07-24T07:02:34;5.53;;;2.55;;
66429;SDS011;53242;51.694;10.006;2022-07-24T07:04:57;4.43;;;2.40;;
66429;SDS011;53242;51.694;10.006;2022-07-24T07:07:19;5.18;;;2.40;;
66429;SDS011;53242;51.694;10.006;2022-07-24T07:09:42;4.35;;;2.17;;
66429;SDS011;53242;51.694;10.006;2022-07-24T07:12:05;3.80;;;2.60;;
66429;SDS011;53242;51.694;10.006;2022-07-24T07:14:27;4.82;;;2.03;;
66429;SDS011;53242;51.694;10.006;2022-07-24T07:16:50;6.07;;;2.78;;
66429;SDS011;53242;51.694;10.006;2022-07-24T07:19:12;4.68;;;2.40;;
66429;SDS011;53242;51.694;10.006;2022-07-24T07:21:34;5.82;;;2.70;;
66429;SDS011;53242;51.694;10.006;2022-07-24T07:23:58;3.75;;;2.05;;
66429;SDS011;53242;51.694;10.006;2022-07-24T07:26:20;6.45;;;2.55;;
66429;SDS011;53242;51.694;10.006;2022-07-24T07:28:43;6.40;;;2.65;;
66429;SDS011;53242;51.694;10.006;2022-07-24T07:31:05;3.95;;;2.25;;
66429;SDS011;53242;51.694;10.006;2022-07-24T07:33:28;4.78;;;2.22;;
66429;SDS011;53242;51.694;10.006;2022-07-24T07:35:50;4.22;;;2.13;;
66429;SDS011;53242;51.694;10.006;2022-07-24T07:38:13;3.42;;;2.33;;
66429;SDS011;53242;51.694;10.006;2022-07-24T07:40:35;4.45;;;2.28;;
66429;SDS011;53242;51.694;10.006;2022-07-24T07:42:58;2.88;;;2.00;;
66429;SDS011;53242;51.694;10.006;2022-07-24T07:45:20;5.00;;;2.20;;
66429;SDS011;53242;51.694;10.006;2022-07-24T07:47:43;3.58;;;2.20;;
66429;SDS011;53242;51.694;10.006;2022-07-24T07:50:06;4.65;;;1.98;;
66429;SDS011;53242;51.694;10.006;2022-07-24T07:52:29;3.40;;;1.83;;
66429;SDS011;53242;51.694;10.006;2022-07-24T07:54:51;4.18;;;2.15;;
66429;SDS011;53242;51.694;10.006;2022-07-24T07:57:14;4.53;;;1.95;;
66429;SDS011;53242;51.694;10.006;2022-07-24T07:59:36;3.33;;;1.90;;
66429;SDS011;53242;51.694;10.006;2022-07-24T08:01:59;4.00;;;2.33;;
66429;SDS011;53242;51.694;10.006;2022-07-24T08:04:21;4.00;;;2.20;;
66429;SDS011;53242;51.694;10.006;2022-07-24T08:06:44;4.60;;;2.10;;
66429;SDS011;53242;51.694;10.006;2022-07-24T08:09:06;5.00;;;2.10;;
66429;SDS011;53242;51.694;10.006;2022-07-24T08:11:29;3.42;;;2.20;;
66429;SDS011;53242;51.694;10.006;2022-07-24T08:13:51;3.67;;;2.10;;
66429;SDS011;53242;51.694;10.006;2022-07-24T08:16:14;2.75;;;1.88;;
66429;SDS011;53242;51.694;10.006;2022-07-24T08:18:36;4.88;;;2.05;;
66429;SDS011;53242;51.694;10.006;2022-07-24T08:20:59;3.13;;;2.08;;
66429;SDS011;53242;51.694;10.006;2022-07-24T08:23:21;3.42;;;2.10;;
66429;SDS011;53242;51.694;10.006;2022-07-24T08:25:44;4.53;;;1.83;;
66429;SDS011;53242;51.694;10.006;2022-07-24T08:28:06;2.88;;;2.05;;
66429;SDS011;53242;51.694;10.006;2022-07-24T08:30:28;3.63;;;2.00;;
66429;SDS011;53242;51.694;10.006;2022-07-24T08:32:51;2.75;;;1.90;;
66429;SDS011;53242;51.694;10.006;2022-07-24T08:35:13;6.55;;;2.40;;
66429;SDS011;53242;51.694;10.006;2022-07-24T08:37:38;5.25;;;2.05;;
66429;SDS011;53242;51.694;10.006;2022-07-24T08:40:01;5.93;;;2.60;;
66429;SDS011;53242;51.694;10.006;2022-07-24T08:42:23;4.88;;;2.17;;
66429;SDS011;53242;51.694;10.006;2022-07-24T08:44:46;4.15;;;2.55;;
66429;SDS011;53242;51.694;10.006;2022-07-24T08:47:09;4.53;;;2.25;;
66429;SDS011;53242;51.694;10.006;2022-07-24T08:49:33;4.20;;;2.40;;
66429;SDS011;53242;51.694;10.006;2022-07-24T08:51:57;4.43;;;2.70;;
66429;SDS011;53242;51.694;10.006;2022-07-24T08:54:22;5.47;;;2.85;;
66429;SDS011;53242;51.694;10.006;2022-07-24T08:56:44;4.57;;;2.40;;
66429;SDS011;53242;51.694;10.006;2022-07-24T08:59:17;5.90;;;3.10;;
66429;SDS011;53242;51.694;10.006;2022-07-24T09:01:41;5.43;;;2.75;;
66429;SDS011;53242;51.694;10.006;2022-07-24T09:04:03;5.60;;;3.08;;
66429;SDS011;53242;51.694;10.006;2022-07-24T09:06:26;11.50;;;3.08;;
66429;SDS011;53242;51.694;10.006;2022-07-24T09:08:59;6.78;;;2.90;;
66429;SDS011;53242;51.694;10.006;2022-07-24T09:11:24;7.00;;;3.25;;
66429;SDS011;53242;51.694;10.006;2022-07-24T09:13:47;5.80;;;3.33;;
66429;SDS011;53242;51.694;10.006;2022-07-24T09:16:32;5.28;;;3.00;;
66429;SDS011;53242;51.694;10.006;2022-07-24T09:19:08;6.45;;;3.28;;
66429;SDS011;53242;51.694;10.006;2022-07-24T09:23:55;6.60;;;2.97;;
66429;SDS011;53242;51.694;10.006;2022-07-24T09:26:23;5.70;;;3.40;;
66429;SDS011;53242;51.694;10.006;2022-07-24T09:28:46;6.20;;;3.28;;
66429;SDS011;53242;51.694;10.006;2022-07-24T09:31:10;5.28;;;3.10;;
66429;SDS011;53242;51.694;10.006;2022-07-24T09:33:35;6.35;;;2.72;;
66429;SDS011;53242;51.694;10.006;2022-07-24T09:35:58;5.95;;;3.22;;
66429;SDS011;53242;51.694;10.006;2022-07-24T09:38:21;6.38;;;2.90;;
66429;SDS011;53242;51.694;10.006;2022-07-24T09:40:46;5.65;;;3.00;;
66429;SDS011;53242;51.694;10.006;2022-07-24T09:43:12;5.05;;;3.15;;
66429;SDS011;53242;51.694;10.006;2022-07-24T09:45:50;6.28;;;2.90;;
66429;SDS011;53242;51.694;10.006;2022-07-24T09:48:16;5.40;;;2.40;;
66429;SDS011;53242;51.694;10.006;2022-07-24T09:50:48;4.65;;;2.97;;
66429;SDS011;53242;51.694;10.006;2022-07-24T09:53:12;5.63;;;3.05;;
66429;SDS011;53242;51.694;10.006;2022-07-24T09:55:35;4.95;;;2.88;;
66429;SDS011;53242;51.694;10.006;2022-07-24T09:57:58;4.70;;;2.53;;
66429;SDS011;53242;51.694;10.006;2022-07-24T10:00:20;5.60;;;2.70;;
66429;SDS011;53242;51.694;10.006;2022-07-24T10:02:43;4.72;;;2.78;;
66429;SDS011;53242;51.694;10.006;2022-07-24T10:05:07;5.75;;;2.38;;
66429;SDS011;53242;51.694;10.006;2022-07-24T10:07:31;5.18;;;2.80;;
66429;SDS011;53242;51.694;10.006;2022-07-24T10:09:55;4.68;;;2.60;;
66429;SDS011;53242;51.694;10.006;2022-07-24T10:12:20;6.43;;;2.95;;
66429;SDS011;53242;51.694;10.006;2022-07-24T10:14:48;4.63;;;2.80;;
66429;SDS011;53242;51.694;10.006;2022-07-24T10:17:12;4.07;;;2.72;;
66429;SDS011;53242;51.694;10.006;2022-07-24T10:19:40;5.13;;;2.25;;
66429;SDS011;53242;51.694;10.006;2022-07-24T10:22:06;4.28;;;2.80;;
66429;SDS011;53242;51.694;10.006;2022-07-24T10:27:01;4.60;;;2.90;;
66429;SDS011;53242;51.694;10.006;2022-07-24T10:29:26;4.40;;;2.80;;
66429;SDS011;53242;51.694;10.006;2022-07-24T10:31:51;5.82;;;2.88;;
66429;SDS011;53242;51.694;10.006;2022-07-24T10:45:44;4.65;;;2.70;;
66429;SDS011;53242;51.694;10.006;2022-07-24T10:48:36;4.57;;;3.10;;
66429;SDS011;53242;51.694;10.006;2022-07-24T10:58:14;4.82;;;2.60;;
66429;SDS011;53242;51.694;10.006;2022-07-24T11:00:48;7.47;;;3.10;;
66429;SDS011;53242;51.694;10.006;2022-07-24T11:03:24;4.88;;;2.85;;
66429;SDS011;53242;51.694;10.006;2022-07-24T11:08:32;5.20;;;3.00;;
66429;SDS011;53242;51.694;10.006;2022-07-24T11:11:01;4.93;;;2.78;;
66429;SDS011;53242;51.694;10.006;2022-07-24T11:21:09;6.43;;;3.20;;
66429;SDS011;53242;51.694;10.006;2022-07-24T11:23:31;4.35;;;2.92;;
66429;SDS011;53242;51.694;10.006;2022-07-24T11:29:17;4.53;;;2.67;;
66429;SDS011;53242;51.694;10.006;2022-07-24T11:31:49;6.10;;;3.28;;
66429;SDS011;53242;51.694;10.006;2022-07-24T11:34:13;5.95;;;3.10;;
66429;SDS011;53242;51.694;10.006;2022-07-24T11:36:36;5.53;;;3.03;;
66429;SDS011;53242;51.694;10.006;2022-07-24T11:39:02;6.70;;;3.47;;
66429;SDS011;53242;51.694;10.006;2022-07-24T11:41:25;5.28;;;3.13;;
66429;SDS011;53242;51.694;10.006;2022-07-24T11:43:51;6.53;;;2.70;;
66429;SDS011;53242;51.694;10.006;2022-07-24T11:46:14;5.35;;;3.38;;
66429;SDS011;53242;51.694;10.006;2022-07-24T11:48:37;4.97;;;3.03;;
66429;SDS011;53242;51.694;10.006;2022-07-24T11:51:03;4.40;;;2.92;;
66429;SDS011;53242;51.694;10.006;2022-07-24T11:53:27;4.18;;;2.80;;
66429;SDS011;53242;51.694;10.006;2022-07-24T11:55:49;5.68;;;2.90;;
66429;SDS011;53242;51.694;10.006;2022-07-24T11:58:23;5.40;;;3.22;;
66429;SDS011;53242;51.694;10.006;2022-07-24T12:00:45;6.50;;;3.17;;
66429;SDS011;53242;51.694;10.006;2022-07-24T12:03:08;5.70;;;3.40;;
66429;SDS011;53242;51.694;10.006;2022-07-24T12:05:38;5.00;;;3.25;;
66429;SDS011;53242;51.694;10.006;2022-07-24T12:08:02;4.88;;;2.92;;
66429;SDS011;53242;51.694;10.006;2022-07-24T12:10:27;4.57;;;2.90;;
66429;SDS011;53242;51.694;10.006;2022-07-24T12:12:53;6.88;;;3.05;;
66429;SDS011;53242;51.694;10.006;2022-07-24T12:15:17;6.85;;;3.03;;
66429;SDS011;53242;51.694;10.006;2022-07-24T12:20:29;6.20;;;3.30;;
66429;SDS011;53242;51.694;10.006;2022-07-24T12:22:54;4.40;;;2.83;;
66429;SDS011;53242;51.694;10.006;2022-07-24T12:25:18;6.90;;;3.17;;
66429;SDS011;53242;51.694;10.006;2022-07-24T12:27:44;4.85;;;3.08;;
66429;SDS011;53242;51.694;10.006;2022-07-24T12:32:51;5.55;;;3.25;;
66429;SDS011;53242;51.694;10.006;2022-07-24T12:35:25;6.22;;;3.05;;
66429;SDS011;53242;51.694;10.006;2022-07-24T12:40:21;4.70;;;2.90;;
66429;SDS011;53242;51.694;10.006;2022-07-24T12:45:31;5.13;;;2.90;;
66429;SDS011;53242;51.694;10.006;2022-07-24T12:50:33;5.78;;;3.30;;
66429;SDS011;53242;51.694;10.006;2022-07-24T12:53:01;5.30;;;2.80;;
66429;SDS011;53242;51.694;10.006;2022-07-24T12:55:28;6.05;;;3.47;;
66429;SDS011;53242;51.694;10.006;2022-07-24T12:57:56;5.28;;;3.30;;
66429;SDS011;53242;51.694;10.006;2022-07-24T13:00:20;6.40;;;3.05;;
66429;SDS011;53242;51.694;10.006;2022-07-24T13:02:43;4.93;;;3.30;;
66429;SDS011;53242;51.694;10.006;2022-07-24T13:05:05;5.15;;;2.88;;
66429;SDS011;53242;51.694;10.006;2022-07-24T13:07:28;5.68;;;3.10;;
66429;SDS011;53242;51.694;10.006;2022-07-24T13:09:51;6.05;;;3.00;;
66429;SDS011;53242;51.694;10.006;2022-07-24T13:12:14;4.85;;;2.95;;
66429;SDS011;53242;51.694;10.006;2022-07-24T13:14:37;5.40;;;3.30;;
66429;SDS011;53242;51.694;10.006;2022-07-24T13:17:10;6.15;;;3.38;;
66429;SDS011;53242;51.694;10.006;2022-07-24T13:19:34;5.55;;;3.63;;
66429;SDS011;53242;51.694;10.006;2022-07-24T13:21:57;5.82;;;3.63;;
66429;SDS011;53242;51.694;10.006;2022-07-24T13:24:19;4.28;;;3.25;;
66429;SDS011;53242;51.694;10.006;2022-07-24T13:26:42;5.40;;;3.50;;
66429;SDS011;53242;51.694;10.006;2022-07-24T13:31:28;5.65;;;3.45;;
66429;SDS011;53242;51.694;10.006;2022-07-24T13:33:50;5.95;;;3.65;;
66429;SDS011;53242;51.694;10.006;2022-07-24T13:36:13;5.80;;;3.40;;
66429;SDS011;53242;51.694;10.006;2022-07-24T13:38:37;5.93;;;3.60;;
66429;SDS011;53242;51.694;10.006;2022-07-24T13:40:59;5.70;;;3.63;;
66429;SDS011;53242;51.694;10.006;2022-07-24T13:43:23;8.23;;;3.58;;
66429;SDS011;53242;51.694;10.006;2022-07-24T13:45:45;4.97;;;3.20;;
66429;SDS011;53242;51.694;10.006;2022-07-24T13:48:08;5.43;;;3.38;;
66429;SDS011;53242;51.694;10.006;2022-07-24T13:50:30;6.10;;;3.42;;
66429;SDS011;53242;51.694;10.006;2022-07-24T13:52:52;6.43;;;3.10;;
66429;SDS011;53242;51.694;10.006;2022-07-24T13:55:15;5.15;;;3.03;;
66429;SDS011;53242;51.694;10.006;2022-07-24T13:57:37;7.10;;;3.72;;
66429;SDS011;53242;51.694;10.006;2022-07-24T14:00:00;5.07;;;3.55;;
66429;SDS011;53242;51.694;10.006;2022-07-24T14:02:22;5.07;;;3.42;;
66429;SDS011;53242;51.694;10.006;2022-07-24T14:04:45;5.32;;;3.50;;
66429;SDS011;53242;51.694;10.006;2022-07-24T14:07:08;5.72;;;3.45;;
66429;SDS011;53242;51.694;10.006;2022-07-24T14:09:30;5.38;;;3.40;;
66429;SDS011;53242;51.694;10.006;2022-07-24T14:11:53;5.57;;;3.13;;
66429;SDS011;53242;51.694;10.006;2022-07-24T14:14:16;6.05;;;3.33;;
66429;SDS011;53242;51.694;10.006;2022-07-24T14:16:38;5.90;;;3.67;;
66429;SDS011;53242;51.694;10.006;2022-07-24T14:19:01;5.45;;;3.63;;
66429;SDS011;53242;51.694;10.006;2022-07-24T14:21:23;7.40;;;3.63;;
66429;SDS011;53242;51.694;10.006;2022-07-24T14:23:46;5.28;;;3.05;;
66429;SDS011;53242;51.694;10.006;2022-07-24T14:26:08;5.55;;;3.50;;
66429;SDS011;53242;51.694;10.006;2022-07-24T14:28:31;7.47;;;3.58;;
66429;SDS011;53242;51.694;10.006;2022-07-24T14:30:54;6.07;;;3.30;;
66429;SDS011;53242;51.694;10.006;2022-07-24T14:33:17;5.57;;;3.75;;
66429;SDS011;53242;51.694;10.006;2022-07-24T14:35:39;5.25;;;3.38;;
66429;SDS011;53242;51.694;10.006;2022-07-24T14:38:02;5.13;;;2.90;;
66429;SDS011;53242;51.694;10.006;2022-07-24T14:40:24;5.50;;;3.30;;
66429;SDS011;53242;51.694;10.006;2022-07-24T14:42:47;4.68;;;3.05;;
66429;SDS011;53242;51.694;10.006;2022-07-24T14:45:10;5.03;;;2.97;;
66429;SDS011;53242;51.694;10.006;2022-07-24T14:47:32;5.22;;;3.63;;
66429;SDS011;53242;51.694;10.006;2022-07-24T14:49:55;5.90;;;3.55;;
66429;SDS011;53242;51.694;10.006;2022-07-24T14:52:17;5.15;;;2.90;;
66429;SDS011;53242;51.694;10.006;2022-07-24T14:54:40;4.82;;;3.50;;
66429;SDS011;53242;51.694;10.006;2022-07-24T14:57:02;5.65;;;3.47;;
66429;SDS011;53242;51.694;10.006;2022-07-24T14:59:26;4.40;;;3.15;;
66429;SDS011;53242;51.694;10.006;2022-07-24T15:01:49;7.20;;;3.40;;
66429;SDS011;53242;51.694;10.006;2022-07-24T15:04:11;5.68;;;3.38;;